createdAt,value
2019-05-01T00:00:23.956Z,9.11
2019-05-01T00:01:24.143Z,9.18
2019-05-01T00:02:24.331Z,9.10
2019-05-01T00:03:24.515Z,9.02
2019-05-01T00:04:24.700Z,9.01
2019-05-01T00:05:24.886Z,8.89
2019-05-01T00:06:25.069Z,8.96
2019-05-01T00:07:25.254Z,8.84
2019-05-01T00:08:25.438Z,8.83
2019-05-01T00:09:25.621Z,8.84
2019-05-01T00:10:25.812Z,8.84
2019-05-01T00:11:26.001Z,8.83
2019-05-01T00:12:26.184Z,8.76
2019-05-01T00:13:26.366Z,8.74
2019-05-01T00:14:26.552Z,8.71
2019-05-01T00:15:26.737Z,8.73
2019-05-01T00:16:26.921Z,8.65
2019-05-01T00:17:27.818Z,8.73
2019-05-01T00:18:27.291Z,8.71
2019-05-01T00:19:27.474Z,8.63
2019-05-01T00:20:27.658Z,8.68
2019-05-01T00:21:27.841Z,8.63
2019-05-01T00:22:28.024Z,8.66
2019-05-01T00:23:28.215Z,8.56
2019-05-01T00:24:28.391Z,8.45
2019-05-01T00:25:28.579Z,8.43
2019-05-01T00:26:28.767Z,8.53
2019-05-01T00:27:28.951Z,8.48
2019-05-01T00:28:29.137Z,8.45
2019-05-01T00:29:29.315Z,8.52
2019-05-01T00:30:30.367Z,8.48
2019-05-01T00:31:29.689Z,8.59
2019-05-01T00:32:29.877Z,8.45
2019-05-01T00:33:30.058Z,8.50
2019-05-01T00:34:30.240Z,8.58
2019-05-01T00:35:30.425Z,8.58
2019-05-01T00:36:30.612Z,8.56
2019-05-01T00:37:30.797Z,8.65
2019-05-01T00:38:30.978Z,8.66
2019-05-01T00:39:31.163Z,8.55
2019-05-01T00:40:31.356Z,8.58
2019-05-01T00:41:31.536Z,8.62
2019-05-01T00:42:31.718Z,8.66
2019-05-01T00:43:31.905Z,8.63
2019-05-01T00:44:32.110Z,8.56
2019-05-01T00:45:32.289Z,8.62
2019-05-01T00:46:32.477Z,8.62
2019-05-01T00:47:32.670Z,8.48
2019-05-01T00:48:32.865Z,8.53
2019-05-01T00:49:33.048Z,8.52
2019-05-01T00:50:33.233Z,8.58
2019-05-01T00:51:33.420Z,8.52
2019-05-01T00:52:33.605Z,8.48
2019-05-01T00:53:33.791Z,8.50
2019-05-01T00:54:33.974Z,8.68
2019-05-01T00:55:34.168Z,8.66
2019-05-01T00:56:34.353Z,8.65
2019-05-01T00:57:34.542Z,8.56
2019-05-01T00:58:34.718Z,8.52
2019-05-01T00:59:34.900Z,8.59
2019-05-01T01:00:42.922Z,8.59
2019-05-01T01:01:35.276Z,8.48
2019-05-01T01:02:35.462Z,8.59
2019-05-01T01:03:35.640Z,8.62
2019-05-01T01:04:35.835Z,8.55
2019-05-01T01:05:36.018Z,8.48
2019-05-01T01:06:36.204Z,8.50
2019-05-01T01:07:36.387Z,8.48
2019-05-01T01:08:36.583Z,8.47
2019-05-01T01:09:36.762Z,8.44
2019-05-01T01:10:36.954Z,8.43
2019-05-01T01:11:37.138Z,8.50
2019-05-01T01:12:37.327Z,8.50
2019-05-01T01:13:37.511Z,8.38
2019-05-01T01:14:37.695Z,8.47
2019-05-01T01:15:37.873Z,8.43
2019-05-01T01:16:38.066Z,8.45
2019-05-01T01:17:38.243Z,8.56
2019-05-01T01:18:38.435Z,8.43
2019-05-01T01:19:38.621Z,8.38
2019-05-01T01:20:38.812Z,8.43
2019-05-01T01:21:38.991Z,8.41
2019-05-01T01:22:39.183Z,8.45
2019-05-01T01:23:39.369Z,8.43
2019-05-01T01:24:39.559Z,8.37
2019-05-01T01:25:39.737Z,8.30
2019-05-01T01:26:39.930Z,8.37
2019-05-01T01:27:40.113Z,8.29
2019-05-01T01:28:40.305Z,8.25
2019-05-01T01:29:40.478Z,8.28
2019-05-01T01:30:40.668Z,8.28
2019-05-01T01:31:40.857Z,8.28
2019-05-01T01:32:41.048Z,8.26
2019-05-01T01:33:41.220Z,8.28
2019-05-01T01:34:41.422Z,8.22
2019-05-01T01:35:41.605Z,8.16
2019-05-01T01:36:41.792Z,8.12
2019-05-01T01:37:41.972Z,8.15
2019-05-01T01:38:42.164Z,8.18
2019-05-01T01:39:42.348Z,8.15
2019-05-01T01:40:42.531Z,8.07
2019-05-01T01:41:42.726Z,8.10
2019-05-01T01:42:42.905Z,8.01
2019-05-01T01:43:43.088Z,7.98
2019-05-01T01:44:43.275Z,8.00
2019-05-01T01:45:43.459Z,8.04
2019-05-01T01:46:43.641Z,8.00
2019-05-01T01:47:43.829Z,7.92
2019-05-01T01:48:44.011Z,7.92
2019-05-01T01:49:44.194Z,7.89
2019-05-01T01:50:44.380Z,7.85
2019-05-01T01:51:44.569Z,7.85
2019-05-01T01:52:44.749Z,7.83
2019-05-01T01:53:44.936Z,7.75
2019-05-01T01:54:45.122Z,7.80
2019-05-01T01:55:45.339Z,7.85
2019-05-01T01:56:45.500Z,7.82
2019-05-01T01:57:45.684Z,7.77
2019-05-01T01:58:45.871Z,7.79
2019-05-01T01:59:46.050Z,7.85
2019-05-01T02:00:46.239Z,7.77
2019-05-01T02:01:46.424Z,7.75
2019-05-01T02:02:46.601Z,7.75
2019-05-01T02:03:46.787Z,7.72
2019-05-01T02:04:46.976Z,7.82
2019-05-01T02:05:47.163Z,7.72
2019-05-01T02:06:47.347Z,7.74
2019-05-01T02:07:47.535Z,7.67
2019-05-01T02:08:56.318Z,7.60
2019-05-01T02:09:48.764Z,7.55
2019-05-01T02:10:48.100Z,7.71
2019-05-01T02:11:48.284Z,7.67
2019-05-01T02:12:48.471Z,7.68
2019-05-01T02:13:48.655Z,7.69
2019-05-01T02:14:48.865Z,7.69
2019-05-01T02:15:49.045Z,7.75
2019-05-01T02:16:49.245Z,7.72
2019-05-01T02:17:50.148Z,7.64
2019-05-01T02:18:49.586Z,7.61
2019-05-01T02:19:49.770Z,7.61
2019-05-01T02:20:49.954Z,7.55
2019-05-01T02:21:50.140Z,7.55
2019-05-01T02:22:50.331Z,7.58
2019-05-01T02:23:50.514Z,7.63
2019-05-01T02:24:50.697Z,7.55
2019-05-01T02:25:50.893Z,7.63
2019-05-01T02:26:51.071Z,7.46
2019-05-01T02:27:51.257Z,7.49
2019-05-01T02:28:51.440Z,7.49
2019-05-01T02:29:51.632Z,7.57
2019-05-01T02:30:51.819Z,7.57
2019-05-01T02:31:52.005Z,7.53
2019-05-01T02:32:52.185Z,7.64
2019-05-01T02:33:52.378Z,7.67
2019-05-01T02:34:52.559Z,7.61
2019-05-01T02:35:52.745Z,7.69
2019-05-01T02:36:52.930Z,7.64
2019-05-01T02:37:53.112Z,7.49
2019-05-01T02:38:53.307Z,7.61
2019-05-01T02:39:53.497Z,7.63
2019-05-01T02:40:53.688Z,7.53
2019-05-01T02:41:53.867Z,7.52
2019-05-01T02:42:54.052Z,7.67
2019-05-01T02:43:54.240Z,7.61
2019-05-01T02:44:54.429Z,7.64
2019-05-01T02:45:54.620Z,7.64
2019-05-01T02:46:54.803Z,7.79
2019-05-01T02:47:54.990Z,7.69
2019-05-01T02:48:55.172Z,7.55
2019-05-01T02:49:55.368Z,7.64
2019-05-01T02:50:55.546Z,7.60
2019-05-01T02:51:55.733Z,7.72
2019-05-01T02:52:55.916Z,7.55
2019-05-01T02:53:56.107Z,7.72
2019-05-01T02:54:56.300Z,7.57
2019-05-01T02:55:56.482Z,7.49
2019-05-01T02:56:56.673Z,7.52
2019-05-01T02:57:56.862Z,7.57
2019-05-01T02:58:57.054Z,7.57
2019-05-01T02:59:57.234Z,7.57
2019-05-01T03:00:57.417Z,7.61
2019-05-01T03:01:57.606Z,7.60
2019-05-01T03:02:57.784Z,7.71
2019-05-01T03:03:57.967Z,7.71
2019-05-01T03:04:58.162Z,7.53
2019-05-01T03:05:58.343Z,7.58
2019-05-01T03:06:58.525Z,7.52
2019-05-01T03:07:58.710Z,7.57
2019-05-01T03:08:58.901Z,7.57
2019-05-01T03:09:59.082Z,7.58
2019-05-01T03:10:59.271Z,7.60
2019-05-01T03:14:42.322Z,7.60
2019-05-01T03:15:42.496Z,7.53
2019-05-01T03:16:42.686Z,7.57
2019-05-01T03:17:42.872Z,7.58
2019-05-01T03:18:43.055Z,7.52
2019-05-01T03:19:43.238Z,7.53
2019-05-01T03:20:43.424Z,7.55
2019-05-01T03:21:43.605Z,7.57
2019-05-01T03:22:43.791Z,7.45
2019-05-01T03:23:43.973Z,7.48
2019-05-01T03:24:44.161Z,7.53
2019-05-01T03:25:44.334Z,7.52
2019-05-01T03:26:44.524Z,7.53
2019-05-01T03:27:44.708Z,7.57
2019-05-01T03:28:44.898Z,7.40
2019-05-01T03:29:45.081Z,7.39
2019-05-01T03:30:45.265Z,7.45
2019-05-01T03:32:12.914Z,7.45
2019-05-01T03:32:45.630Z,7.37
2019-05-01T03:33:45.827Z,7.39
2019-05-01T03:34:51.965Z,7.34
2019-05-01T03:35:46.187Z,7.39
2019-05-01T03:36:46.374Z,7.42
2019-05-01T03:37:46.547Z,7.39
2019-05-01T03:38:46.730Z,7.39
2019-05-01T03:39:46.911Z,7.46
2019-05-01T03:40:47.096Z,7.35
2019-05-01T03:41:47.303Z,7.34
2019-05-01T03:42:47.492Z,7.39
2019-05-01T03:43:47.665Z,7.42
2019-05-01T03:44:47.837Z,7.25
2019-05-01T03:45:47.989Z,7.34
2019-05-01T03:46:48.181Z,7.40
2019-05-01T03:47:48.413Z,7.30
2019-05-01T03:48:48.568Z,7.35
2019-05-01T03:49:48.757Z,7.31
2019-05-01T03:50:48.943Z,7.31
2019-05-01T03:51:49.114Z,7.23
2019-05-01T03:52:49.309Z,7.28
2019-05-01T03:53:49.497Z,7.20
2019-05-01T03:54:49.697Z,7.24
2019-05-01T03:55:49.860Z,7.31
2019-05-01T03:56:50.050Z,7.15
2019-05-01T03:57:50.226Z,7.13
2019-05-01T03:58:50.427Z,7.05
2019-05-01T03:59:50.584Z,7.03
2019-05-01T04:00:50.773Z,7.12
2019-05-01T04:01:50.961Z,7.13
2019-05-01T04:02:51.138Z,6.99
2019-05-01T04:03:51.328Z,7.09
2019-05-01T04:04:51.520Z,6.95
2019-05-01T04:05:51.701Z,6.95
2019-05-01T04:06:51.877Z,6.97
2019-05-01T04:07:52.073Z,7.05
2019-05-01T04:08:52.262Z,7.05
2019-05-01T04:09:52.447Z,7.09
2019-05-01T04:10:52.624Z,6.97
2019-05-01T04:11:52.821Z,7.05
2019-05-01T04:12:53.019Z,6.97
2019-05-01T04:13:53.199Z,7.03
2019-05-01T04:14:53.374Z,6.99
2019-05-01T04:15:53.564Z,7.10
2019-05-01T04:16:53.745Z,6.95
2019-05-01T04:17:53.940Z,6.95
2019-05-01T04:18:54.119Z,6.87
2019-05-01T04:19:54.313Z,6.88
2019-05-01T04:20:54.495Z,6.87
2019-05-01T04:21:54.703Z,6.87
2019-05-01T04:22:54.857Z,6.87
2019-05-01T04:23:55.048Z,6.85
2019-05-01T04:24:55.225Z,6.84
2019-05-01T04:25:55.409Z,6.80
2019-05-01T04:26:55.588Z,6.97
2019-05-01T04:27:58.652Z,6.92
2019-05-01T04:28:55.953Z,6.76
2019-05-01T04:29:56.132Z,6.80
2019-05-01T04:30:56.315Z,6.81
2019-05-01T04:31:56.495Z,6.70
2019-05-01T04:32:56.684Z,6.70
2019-05-01T04:33:56.870Z,6.69
2019-05-01T04:34:57.070Z,6.64
2019-05-01T04:35:57.244Z,6.62
2019-05-01T04:36:57.427Z,6.77
2019-05-01T04:37:57.605Z,6.79
2019-05-01T04:38:57.791Z,6.99
2019-05-01T04:39:57.988Z,6.94
2019-05-01T04:40:58.166Z,6.97
2019-05-01T04:41:58.347Z,6.92
2019-05-01T04:42:58.529Z,6.94
2019-05-01T04:43:58.706Z,7.09
2019-05-01T04:44:58.894Z,7.20
2019-05-01T04:45:59.082Z,7.10
2019-05-01T04:46:59.270Z,7.07
2019-05-01T04:47:59.450Z,6.99
2019-05-01T04:48:59.634Z,7.09
2019-05-01T04:49:59.814Z,7.07
2019-05-01T04:50:59.994Z,6.95
2019-05-01T04:52:00.176Z,6.99
2019-05-01T04:53:00.361Z,7.06
2019-05-01T04:54:00.552Z,7.21
2019-05-01T04:55:00.733Z,7.02
2019-05-01T04:56:00.906Z,7.13
2019-05-01T04:57:01.089Z,7.06
2019-05-01T04:58:01.275Z,7.12
2019-05-01T04:59:01.451Z,7.12
2019-05-01T05:00:01.638Z,7.15
2019-05-01T05:01:01.823Z,7.30
2019-05-01T05:02:02.012Z,7.37
2019-05-01T05:03:04.847Z,7.34
2019-05-01T05:04:02.367Z,7.32
2019-05-01T05:05:02.549Z,7.32
2019-05-01T05:06:02.747Z,7.25
2019-05-01T05:07:02.923Z,7.24
2019-05-01T05:08:03.104Z,7.25
2019-05-01T05:09:03.288Z,7.32
2019-05-01T05:10:03.475Z,7.25
2019-05-01T05:11:03.655Z,7.17
2019-05-01T05:12:03.833Z,7.20
2019-05-01T05:13:04.028Z,7.09
2019-05-01T05:14:04.213Z,7.24
2019-05-01T05:15:04.406Z,7.25
2019-05-01T05:16:04.590Z,7.25
2019-05-01T05:17:04.771Z,7.20
2019-05-01T05:18:04.955Z,7.25
2019-05-01T05:19:05.140Z,7.20
2019-05-01T05:20:05.322Z,7.24
2019-05-01T05:21:05.498Z,7.28
2019-05-01T05:22:05.687Z,7.37
2019-05-01T05:23:05.867Z,7.30
2019-05-01T05:24:06.050Z,7.30
2019-05-01T05:25:06.252Z,7.27
2019-05-01T05:26:06.437Z,7.39
2019-05-01T05:27:06.621Z,7.49
2019-05-01T05:28:06.820Z,7.46
2019-05-01T05:29:07.013Z,7.52
2019-05-01T05:30:07.205Z,7.64
2019-05-01T05:31:07.391Z,7.61
2019-05-01T05:32:07.581Z,7.55
2019-05-01T05:33:18.010Z,7.46
2019-05-01T05:34:07.956Z,7.52
2019-05-01T05:35:08.141Z,7.48
2019-05-01T05:36:08.331Z,7.49
2019-05-01T05:37:08.517Z,7.46
2019-05-01T05:38:08.687Z,7.57
2019-05-01T05:39:08.869Z,7.64
2019-05-01T05:40:09.053Z,7.74
2019-05-01T05:41:09.238Z,7.82
2019-05-01T05:42:09.422Z,7.75
2019-05-01T05:43:09.601Z,7.77
2019-05-01T05:44:09.791Z,7.52
2019-05-01T05:45:09.978Z,7.50
2019-05-01T05:46:10.165Z,7.50
2019-05-01T05:47:10.349Z,7.57
2019-05-01T05:48:10.531Z,7.49
2019-05-01T05:49:10.737Z,7.34
2019-05-01T05:50:10.914Z,7.39
2019-05-01T05:51:11.091Z,7.42
2019-05-01T05:52:11.273Z,7.39
2019-05-01T05:53:11.462Z,7.46
2019-05-01T05:54:11.646Z,7.42
2019-05-01T05:55:11.827Z,7.52
2019-05-01T05:56:12.009Z,7.55
2019-05-01T05:57:12.201Z,7.46
2019-05-01T05:58:12.382Z,7.64
2019-05-01T05:59:12.568Z,7.50
2019-05-01T06:00:12.740Z,7.60
2019-05-01T06:01:12.929Z,7.52
2019-05-01T06:02:13.115Z,7.67
2019-05-01T06:03:13.307Z,7.63
2019-05-01T06:04:13.498Z,7.72
2019-05-01T06:05:13.675Z,7.72
2019-05-01T06:06:13.867Z,7.71
2019-05-01T06:07:14.048Z,7.69
2019-05-01T06:08:14.229Z,7.68
2019-05-01T06:09:15.644Z,7.69
2019-05-01T06:10:18.427Z,7.63
2019-05-01T06:11:14.783Z,7.60
2019-05-01T06:12:14.965Z,7.57
2019-05-01T06:13:18.000Z,7.43
2019-05-01T06:14:15.335Z,7.58
2019-05-01T06:15:15.515Z,7.58
2019-05-01T06:16:16.142Z,7.58
2019-05-01T06:17:15.895Z,7.68
2019-05-01T06:18:16.083Z,7.68
2019-05-01T06:19:16.395Z,7.57
2019-05-01T06:20:16.448Z,7.52
2019-05-01T06:21:16.637Z,7.57
2019-05-01T06:22:16.828Z,7.57
2019-05-01T06:23:20.571Z,7.68
2019-05-01T06:24:17.192Z,7.71
2019-05-01T06:25:23.120Z,7.82
2019-05-01T06:26:17.557Z,7.83
2019-05-01T06:27:17.747Z,8.02
2019-05-01T06:28:19.961Z,8.11
2019-05-01T06:29:18.134Z,8.16
2019-05-01T06:30:18.319Z,8.36
2019-05-01T06:31:23.285Z,8.33
2019-05-01T06:32:18.683Z,8.40
2019-05-01T06:33:18.869Z,8.45
2019-05-01T06:34:19.060Z,8.55
2019-05-01T06:35:19.242Z,8.47
2019-05-01T06:36:19.430Z,8.59
2019-05-01T06:37:20.855Z,8.66
2019-05-01T06:38:19.815Z,8.71
2019-05-01T06:39:19.998Z,8.83
2019-05-01T06:40:22.542Z,8.68
2019-05-01T06:41:20.363Z,8.77
2019-05-01T06:42:20.535Z,8.65
2019-05-01T06:43:25.205Z,8.83
2019-05-01T06:44:20.920Z,8.99
2019-05-01T06:45:21.105Z,8.84
2019-05-01T06:46:22.095Z,8.89
2019-05-01T06:47:21.468Z,8.98
2019-05-01T06:48:21.654Z,8.86
2019-05-01T06:49:24.223Z,8.84
2019-05-01T06:50:22.029Z,8.83
2019-05-01T06:51:22.214Z,8.89
2019-05-01T06:52:25.012Z,8.87
2019-05-01T06:53:22.590Z,8.80
2019-05-01T06:54:22.778Z,8.83
2019-05-01T06:55:27.171Z,8.83
2019-05-01T06:56:23.148Z,8.71
2019-05-01T06:57:23.341Z,8.61
2019-05-01T06:58:23.530Z,8.62
2019-05-01T06:59:26.339Z,8.65
2019-05-01T07:00:23.897Z,8.73
2019-05-01T07:01:24.150Z,8.70
2019-05-01T07:02:24.262Z,8.89
2019-05-01T07:03:24.452Z,8.84
2019-05-01T07:04:24.650Z,9.01
2019-05-01T07:05:24.812Z,9.13
2019-05-01T07:06:26.041Z,9.20
2019-05-01T07:07:25.889Z,9.21
2019-05-01T07:08:29.341Z,9.31
2019-05-01T07:09:27.986Z,9.35
2019-05-01T07:10:31.754Z,9.46
2019-05-01T07:11:25.978Z,9.71
2019-05-01T07:12:28.317Z,9.58
2019-05-01T07:13:26.280Z,9.61
2019-05-01T07:14:26.465Z,9.79
2019-05-01T07:15:27.165Z,9.99
2019-05-01T07:16:26.861Z,10.07
2019-05-01T07:17:27.043Z,10.27
2019-05-01T07:18:29.215Z,10.40
2019-05-01T07:19:27.407Z,10.52
2019-05-01T07:20:27.599Z,10.51
2019-05-01T07:21:32.381Z,10.42
2019-05-01T07:22:27.963Z,10.40
2019-05-01T07:23:28.151Z,10.44
2019-05-01T07:24:29.142Z,10.42
2019-05-01T07:25:28.529Z,10.32
2019-05-01T07:26:28.712Z,10.30
2019-05-01T07:27:28.906Z,10.47
2019-05-01T07:28:34.089Z,10.63
2019-05-01T07:29:29.277Z,10.74
2019-05-01T07:30:29.472Z,10.76
2019-05-01T07:31:30.914Z,10.71
2019-05-01T07:32:29.855Z,10.91
2019-05-01T07:33:30.047Z,10.89
2019-05-01T07:34:30.229Z,11.11
2019-05-01T07:35:33.094Z,11.06
2019-05-01T07:36:30.600Z,11.09
2019-05-01T07:37:30.790Z,11.09
2019-05-01T07:38:32.874Z,11.28
2019-05-01T07:39:32.714Z,11.10
2019-05-01T07:40:31.383Z,11.24
2019-05-01T07:41:33.969Z,11.15
2019-05-01T07:42:31.766Z,11.18
2019-05-01T07:43:31.950Z,11.15
2019-05-01T07:44:33.782Z,11.15
2019-05-01T07:45:32.321Z,11.10
2019-05-01T07:46:32.502Z,11.07
2019-05-01T07:47:32.690Z,11.22
2019-05-01T07:48:35.977Z,11.37
2019-05-01T07:49:33.064Z,11.44
2019-05-01T07:50:33.246Z,11.79
2019-05-01T07:51:33.446Z,11.79
2019-05-01T07:52:33.637Z,11.76
2019-05-01T07:53:33.827Z,11.82
2019-05-01T07:54:37.730Z,11.82
2019-05-01T07:55:34.217Z,11.86
2019-05-01T07:56:34.397Z,11.95
2019-05-01T07:57:39.553Z,12.05
2019-05-01T07:58:34.777Z,12.34
2019-05-01T07:59:34.975Z,12.56
2019-05-01T08:00:36.907Z,12.86
2019-05-01T08:01:35.346Z,12.95
2019-05-01T08:02:35.547Z,13.15
2019-05-01T08:03:37.990Z,13.49
2019-05-01T08:04:36.671Z,14.04
2019-05-01T08:05:36.116Z,14.57
2019-05-01T08:06:36.303Z,14.54
2019-05-01T08:07:36.512Z,14.69
2019-05-01T08:08:39.542Z,14.72
2019-05-01T08:09:36.895Z,14.75
2019-05-01T08:10:37.092Z,14.84
2019-05-01T08:11:39.113Z,14.68
2019-05-01T08:12:37.487Z,14.62
2019-05-01T08:13:37.685Z,14.89
2019-05-01T08:14:37.877Z,15.17
2019-05-01T08:15:38.076Z,15.31
2019-05-01T08:16:42.422Z,15.34
2019-05-01T08:17:38.452Z,16.01
2019-05-01T08:18:38.641Z,16.48
2019-05-01T08:19:39.378Z,16.75
2019-05-01T08:20:39.014Z,16.21
2019-05-01T08:21:39.213Z,15.69
2019-05-01T08:22:39.404Z,15.39
2019-05-01T08:23:42.571Z,15.49
2019-05-01T08:24:39.810Z,15.93
2019-05-01T08:25:39.967Z,16.58
2019-05-01T08:26:44.252Z,16.71
2019-05-01T08:27:40.350Z,16.60
2019-05-01T08:28:40.586Z,16.02
2019-05-01T08:29:42.172Z,15.93
2019-05-01T08:30:41.005Z,16.02
2019-05-01T08:31:41.192Z,16.24
2019-05-01T08:32:41.386Z,16.01
2019-05-01T08:33:44.780Z,16.00
2019-05-01T08:34:48.754Z,16.02
2019-05-01T08:35:41.958Z,15.68
2019-05-01T08:36:42.717Z,15.46
2019-05-01T08:37:42.345Z,15.39
2019-05-01T08:38:42.534Z,15.41
2019-05-01T08:39:44.166Z,15.01
2019-05-01T08:40:42.939Z,14.62
2019-05-01T08:41:43.119Z,14.84
2019-05-01T08:42:44.209Z,14.91
2019-05-01T08:43:43.502Z,15.11
2019-05-01T08:44:43.684Z,15.51
2019-05-01T08:45:43.899Z,15.68
2019-05-01T08:46:46.918Z,15.43
2019-05-01T08:47:44.278Z,15.43
2019-05-01T08:48:44.478Z,15.36
2019-05-01T08:49:49.503Z,15.28
2019-05-01T08:50:44.857Z,15.57
2019-05-01T08:51:45.057Z,15.54
2019-05-01T08:52:47.373Z,15.82
2019-05-01T08:53:45.443Z,16.01
2019-05-01T08:54:45.655Z,17.08
2019-05-01T08:55:47.118Z,18.07
2019-05-01T08:56:46.028Z,18.14
2019-05-01T08:57:46.238Z,18.03
2019-05-01T08:58:49.398Z,18.12
2019-05-01T08:59:46.631Z,18.36
2019-05-01T09:00:46.826Z,18.25
2019-05-01T09:01:50.604Z,18.51
2019-05-01T09:02:47.213Z,19.18
2019-05-01T09:03:49.631Z,20.23
2019-05-01T09:04:47.609Z,20.08
2019-05-01T09:05:52.037Z,19.73
2019-05-01T09:06:48.000Z,19.48
2019-05-01T09:07:51.335Z,20.11
2019-05-01T09:08:48.389Z,20.08
2019-05-01T09:09:48.588Z,20.05
2019-05-01T09:10:49.839Z,19.80
2019-05-01T09:11:48.991Z,19.87
2019-05-01T09:12:51.974Z,20.29
2019-05-01T09:13:49.372Z,19.50
2019-05-01T09:14:51.188Z,19.21
2019-05-01T09:15:49.783Z,19.73
2019-05-01T09:16:52.318Z,19.61
2019-05-01T09:17:50.182Z,19.61
2019-05-01T09:18:50.387Z,19.47
2019-05-01T09:19:50.593Z,19.63
2019-05-01T09:20:50.789Z,19.84
2019-05-01T09:21:50.995Z,20.05
2019-05-01T09:22:51.204Z,19.71
2019-05-01T09:23:53.221Z,19.91
2019-05-01T09:24:51.581Z,20.66
2019-05-01T09:25:51.797Z,20.97
2019-05-01T09:26:51.985Z,20.99
2019-05-01T09:27:52.182Z,21.52
2019-05-01T09:28:52.381Z,20.95
2019-05-01T09:29:52.865Z,21.38
2019-05-01T09:30:52.779Z,20.59
2019-05-01T09:31:52.985Z,19.92
2019-05-01T09:32:54.489Z,20.59
2019-05-01T09:33:53.396Z,20.95
2019-05-01T09:34:53.591Z,21.43
2019-05-01T09:35:53.789Z,21.40
2019-05-01T09:36:54.001Z,21.17
2019-05-01T09:37:54.201Z,20.89
2019-05-01T09:38:54.397Z,20.99
2019-05-01T09:39:54.604Z,21.25
2019-05-01T09:40:54.799Z,21.59
2019-05-01T09:41:55.006Z,21.53
2019-05-01T09:42:59.466Z,21.71
2019-05-01T09:43:55.401Z,21.90
2019-05-01T09:44:55.608Z,22.40
2019-05-01T09:45:55.801Z,22.77
2019-05-01T09:46:56.018Z,22.88
2019-05-01T09:47:56.229Z,22.65
2019-05-01T09:48:56.409Z,21.83
2019-05-01T09:49:56.606Z,21.61
2019-05-01T09:51:00.820Z,21.58
2019-05-01T09:51:57.017Z,21.99
2019-05-01T09:52:59.742Z,22.07
2019-05-01T09:53:57.476Z,22.33
2019-05-01T09:54:57.609Z,22.37
2019-05-01T09:55:57.823Z,22.70
2019-05-01T09:56:58.023Z,23.23
2019-05-01T09:57:58.227Z,22.80
2019-05-01T09:58:58.442Z,22.45
2019-05-01T09:59:58.644Z,22.31
2019-05-01T10:00:58.874Z,22.54
2019-05-01T10:02:03.064Z,22.91
2019-05-01T10:02:59.249Z,23.68
2019-05-01T10:03:59.439Z,23.87
2019-05-01T10:05:02.096Z,24.06
2019-05-01T10:05:59.837Z,24.69
2019-05-01T10:07:02.208Z,24.52
2019-05-01T10:08:04.165Z,24.50
2019-05-01T10:09:00.452Z,24.35
2019-05-01T10:10:00.656Z,24.57
2019-05-01T10:11:05.137Z,24.67
2019-05-01T10:12:01.062Z,24.52
2019-05-01T10:13:01.257Z,23.76
2019-05-01T10:14:04.094Z,24.30
2019-05-01T10:15:01.671Z,23.68
2019-05-01T10:16:01.872Z,23.78
2019-05-01T10:17:02.080Z,23.76
2019-05-01T10:18:02.328Z,24.52
2019-05-01T10:19:02.477Z,24.62
2019-05-01T10:20:02.686Z,24.06
2019-05-01T10:21:02.884Z,24.09
2019-05-01T10:22:03.762Z,24.15
2019-05-01T10:23:03.286Z,25.13
2019-05-01T10:24:03.483Z,24.87
2019-05-01T10:25:03.680Z,24.57
2019-05-01T10:26:03.882Z,25.05
2019-05-01T10:27:04.081Z,25.60
2019-05-01T10:28:07.295Z,25.64
2019-05-01T10:29:04.500Z,25.45
2019-05-01T10:30:04.688Z,25.42
2019-05-01T10:31:07.028Z,25.17
2019-05-01T10:32:05.087Z,25.02
2019-05-01T10:33:05.283Z,24.96
2019-05-01T10:34:07.582Z,24.80
2019-05-01T10:35:05.710Z,25.02
2019-05-01T10:36:05.901Z,25.54
2019-05-01T10:37:06.114Z,25.52
2019-05-01T10:38:09.346Z,25.72
2019-05-01T10:39:06.513Z,26.52
2019-05-01T10:40:06.714Z,26.48
2019-05-01T10:41:09.271Z,25.27
2019-05-01T10:42:07.119Z,25.72
2019-05-01T10:43:07.325Z,26.06
2019-05-01T10:44:07.529Z,25.99
2019-05-01T10:45:07.738Z,25.88
2019-05-01T10:46:07.940Z,25.10
2019-05-01T10:47:08.176Z,25.20
2019-05-01T10:48:08.344Z,25.58
2019-05-01T10:49:08.551Z,25.64
2019-05-01T10:50:08.743Z,25.60
2019-05-01T10:51:08.945Z,26.29
2019-05-01T10:52:14.300Z,26.30
2019-05-01T10:53:09.343Z,26.62
2019-05-01T10:54:09.546Z,26.84
2019-05-01T10:55:09.752Z,26.67
2019-05-01T10:56:09.955Z,26.32
2019-05-01T10:57:12.831Z,26.26
2019-05-01T10:58:12.762Z,25.23
2019-05-01T10:59:10.559Z,25.09
2019-05-01T11:00:10.758Z,25.40
2019-05-01T11:01:10.961Z,26.12
2019-05-01T11:02:11.156Z,26.60
2019-05-01T11:03:11.363Z,25.57
2019-05-01T11:04:11.552Z,25.17
2019-05-01T11:05:11.754Z,25.28
2019-05-01T11:06:11.947Z,25.17
2019-05-01T11:07:12.149Z,25.28
2019-05-01T11:08:12.351Z,25.43
2019-05-01T11:09:12.580Z,25.13
2019-05-01T11:10:12.805Z,24.20
2019-05-01T11:11:13.010Z,24.03
2019-05-01T11:12:13.209Z,24.22
2019-05-01T11:13:13.409Z,24.35
2019-05-01T11:14:13.619Z,24.18
2019-05-01T11:15:13.810Z,24.47
2019-05-01T11:16:14.011Z,23.73
2019-05-01T11:17:14.433Z,23.57
2019-05-01T11:18:14.516Z,23.58
2019-05-01T11:19:14.643Z,23.61
2019-05-01T11:20:14.855Z,22.88
2019-05-01T11:21:15.079Z,23.02
2019-05-01T11:22:15.280Z,22.46
2019-05-01T11:23:15.472Z,22.47
2019-05-01T11:24:15.666Z,22.47
2019-05-01T11:25:15.861Z,22.62
2019-05-01T11:26:16.058Z,22.55
2019-05-01T11:27:16.253Z,22.88
2019-05-01T11:28:16.448Z,22.94
2019-05-01T11:29:16.639Z,23.09
2019-05-01T11:30:16.867Z,22.94
2019-05-01T11:31:17.064Z,22.61
2019-05-01T11:32:17.257Z,22.57
2019-05-01T11:33:17.495Z,22.91
2019-05-01T11:34:17.690Z,23.12
2019-05-01T11:35:17.893Z,23.32
2019-05-01T11:36:18.079Z,22.95
2019-05-01T11:37:18.280Z,23.47
2019-05-01T11:38:18.477Z,23.33
2019-05-01T11:39:18.682Z,23.00
2019-05-01T11:40:18.887Z,22.75
2019-05-01T11:41:19.090Z,23.05
2019-05-01T11:42:19.271Z,23.15
2019-05-01T11:43:19.474Z,23.28
2019-05-01T11:44:19.672Z,23.42
2019-05-01T11:45:19.871Z,23.36
2019-05-01T11:46:20.074Z,23.93
2019-05-01T11:47:20.269Z,24.12
2019-05-01T11:48:20.466Z,23.48
2019-05-01T11:49:20.667Z,22.47
2019-05-01T11:50:20.857Z,22.72
2019-05-01T11:51:21.055Z,23.04
2019-05-01T11:52:21.265Z,22.61
2019-05-01T11:53:21.453Z,22.76
2019-05-01T11:54:21.656Z,22.62
2019-05-01T11:55:21.865Z,22.64
2019-05-01T11:56:22.074Z,22.52
2019-05-01T11:57:22.267Z,22.54
2019-05-01T11:58:22.458Z,22.64
2019-05-01T11:59:22.673Z,22.80
2019-05-01T12:00:22.840Z,22.83
2019-05-01T12:01:23.035Z,23.20
2019-05-01T12:02:23.238Z,22.77
2019-05-01T12:03:23.432Z,22.91
2019-05-01T12:04:23.625Z,23.01
2019-05-01T12:05:23.825Z,23.20
2019-05-01T12:06:24.027Z,23.32
2019-05-01T12:07:24.208Z,22.91
2019-05-01T12:08:24.411Z,22.39
2019-05-01T12:09:24.624Z,22.15
2019-05-01T12:10:24.819Z,21.92
2019-05-01T12:11:25.027Z,22.00
2019-05-01T12:12:25.213Z,22.09
2019-05-01T12:13:25.407Z,21.84
2019-05-01T12:14:25.611Z,21.56
2019-05-01T12:15:25.829Z,21.17
2019-05-01T12:16:26.031Z,21.38
2019-05-01T12:17:26.228Z,21.42
2019-05-01T12:18:26.433Z,21.32
2019-05-01T12:19:26.631Z,21.83
2019-05-01T12:20:26.820Z,22.18
2019-05-01T12:21:27.003Z,22.05
2019-05-01T12:22:27.224Z,21.84
2019-05-01T12:23:27.432Z,21.50
2019-05-01T12:24:27.672Z,21.17
2019-05-01T12:25:27.916Z,20.67
2019-05-01T12:26:28.070Z,21.04
2019-05-01T12:27:28.305Z,21.21
2019-05-01T12:28:28.492Z,21.27
2019-05-01T12:29:28.707Z,21.19
2019-05-01T12:30:28.903Z,21.37
2019-05-01T12:31:31.241Z,21.46
2019-05-01T12:32:29.316Z,21.43
2019-05-01T12:33:29.516Z,21.17
2019-05-01T12:34:29.700Z,21.12
2019-05-01T12:35:29.903Z,21.13
2019-05-01T12:36:36.518Z,21.38
2019-05-01T12:37:30.285Z,21.38
2019-05-01T12:38:30.524Z,21.42
2019-05-01T12:39:30.711Z,21.32
2019-05-01T12:40:30.912Z,21.28
2019-05-01T12:41:31.113Z,21.25
2019-05-01T12:42:31.414Z,21.40
2019-05-01T12:43:31.567Z,21.67
2019-05-01T12:44:31.813Z,21.59
2019-05-01T12:45:31.988Z,21.80
2019-05-01T12:46:32.183Z,22.21
2019-05-01T12:47:32.390Z,21.56
2019-05-01T12:48:32.587Z,21.32
2019-05-01T12:49:32.772Z,21.54
2019-05-01T12:50:32.971Z,21.56
2019-05-01T12:51:33.199Z,21.35
2019-05-01T12:52:33.384Z,21.47
2019-05-01T12:53:33.535Z,21.16
2019-05-01T12:54:33.729Z,20.84
2019-05-01T12:55:33.930Z,20.92
2019-05-01T12:56:34.241Z,20.80
2019-05-01T12:57:34.298Z,21.14
2019-05-01T12:58:34.483Z,21.37
2019-05-01T12:59:34.678Z,21.46
2019-05-01T13:00:34.871Z,21.65
2019-05-01T13:01:35.063Z,22.03
2019-05-01T13:02:35.265Z,22.33
2019-05-01T13:03:35.455Z,22.75
2019-05-01T13:04:35.648Z,23.07
2019-05-01T13:05:35.849Z,23.36
2019-05-01T13:06:48.624Z,22.90
2019-05-01T13:07:36.270Z,23.16
2019-05-01T13:08:36.446Z,22.33
2019-05-01T13:09:36.647Z,21.82
2019-05-01T13:10:36.847Z,21.91
2019-05-01T13:11:37.039Z,22.27